Time;durP1;ratioP1;P1;durP2;ratioP2;P2;SDS_P1;SDS_P2;PMS_P1;PMS_P2;Temp;Humidity;BMP_temperature;BMP_pressure;BME280_temperature;BME280_humidity;BME280_pressure;Samples;Min_cycle;Max_cycle;Signal;HPM_P1;HPM_P2
2022/05/20 00:01:02;;;;;;;31.10;26.90;;;;;;;;;;6278176;22;20428;-93
2022/05/20 00:04:07;;;;;;;28.67;25.70;;;;;;;;;;6277941;22;20385;-93
2022/05/20 00:07:16;;;;;;;29.30;25.73;;;;;;;;;;6275830;22;20482;-95
2022/05/20 00:10:22;;;;;;;38.03;30.07;;;;;;;;;;6277442;22;20694;-91
2022/05/20 00:13:28;;;;;;;35.83;29.10;;;;;;;;;;6275267;22;20860;-93
2022/05/20 00:16:41;;;;;;;37.13;30.67;;;;;;;;;;6276598;22;21134;-92
2022/05/20 00:19:47;;;;;;;39.13;29.70;;;;;;;;;;6286001;22;20380;-93
2022/05/20 00:22:52;;;;;;;33.97;30.43;;;;;;;;;;6285553;22;20389;-93
2022/05/20 00:25:58;;;;;;;35.43;31.60;;;;;;;;;;6278238;22;20383;-93
2022/05/20 00:29:04;;;;;;;33.77;30.20;;;;;;;;;;6277097;22;20384;-93
2022/05/20 00:32:10;;;;;;;33.67;29.87;;;;;;;;;;6274025;22;20392;-93
2022/05/20 00:35:16;;;;;;;35.70;30.97;;;;;;;;;;6275291;22;20384;-92
2022/05/20 00:38:22;;;;;;;33.57;29.97;;;;;;;;;;6274142;22;20376;-93
2022/05/20 00:41:27;;;;;;;38.17;29.87;;;;;;;;;;6275948;22;20706;-93
2022/05/20 00:44:33;;;;;;;35.97;30.53;;;;;;;;;;6276072;22;20731;-93
2022/05/20 00:47:40;;;;;;;34.87;28.20;;;;;;;;;;6273005;22;20927;-94
2022/05/20 00:50:45;;;;;;;34.27;29.07;;;;;;;;;;6275106;22;20432;-93
2022/05/20 00:53:51;;;;;;;32.30;25.90;;;;;;;;;;6273637;22;20523;-93
2022/05/20 00:56:57;;;;;;;29.57;26.50;;;;;;;;;;6276017;22;20384;-93
2022/05/20 01:00:03;;;;;;;30.93;27.47;;;;;;;;;;6273645;22;20428;-93
2022/05/20 01:03:09;;;;;;;31.30;26.87;;;;;;;;;;6291005;22;20438;-93
2022/05/20 01:06:15;;;;;;;28.60;25.50;;;;;;;;;;6290655;22;20428;-93
2022/05/20 01:09:21;;;;;;;30.57;25.27;;;;;;;;;;6275347;22;20381;-92
2022/05/20 01:12:47;;;;;;;26.93;23.00;;;;;;;;;;6273363;22;20376;-94
2022/05/20 01:15:33;;;;;;;34.83;23.10;;;;;;;;;;6272410;22;20468;-93
2022/05/20 01:18:39;;;;;;;25.43;22.70;;;;;;;;;;6273941;22;20376;-93
2022/05/20 01:21:45;;;;;;;29.23;23.13;;;;;;;;;;6273961;22;20394;-93
2022/05/20 01:24:50;;;;;;;26.20;23.07;;;;;;;;;;6270911;22;20396;-92
2022/05/20 01:27:56;;;;;;;24.90;22.30;;;;;;;;;;6276813;22;20439;-93
2022/05/20 01:31:02;;;;;;;28.30;25.50;;;;;;;;;;6279719;22;20368;-93
2022/05/20 01:34:08;;;;;;;26.27;23.50;;;;;;;;;;6277347;22;20384;-94
2022/05/20 01:37:14;;;;;;;27.73;24.73;;;;;;;;;;6274451;22;21140;-93
2022/05/20 01:40:20;;;;;;;27.63;24.50;;;;;;;;;;6275039;22;20716;-93
2022/05/20 01:43:25;;;;;;;31.83;26.30;;;;;;;;;;6277158;22;20403;-93
2022/05/20 01:46:11;;;;;;;28.30;25.27;;;;;;;;;;6279745;22;20417;-93
2022/05/20 01:48:57;;;;;;;26.03;23.37;;;;;;;;;;6275330;22;20399;-93
2022/05/20 01:52:03;;;;;;;25.40;22.00;;;;;;;;;;6272747;22;20407;-93
2022/05/20 01:54:58;;;;;;;25.53;22.93;;;;;;;;;;6274744;22;20387;-92
2022/05/20 01:57:28;;;;;;;26.17;23.43;;;;;;;;;;6278390;22;20368;-93
2022/05/20 02:00:34;;;;;;;25.20;22.60;;;;;;;;;;6278489;22;20605;-93
2022/05/20 02:03:40;;;;;;;30.40;24.57;;;;;;;;;;6281752;22;20382;-94
2022/05/20 02:06:46;;;;;;;30.37;24.10;;;;;;;;;;6290505;22;20814;-93
2022/05/20 02:09:51;;;;;;;26.67;23.87;;;;;;;;;;6291757;22;20381;-93
2022/05/20 02:13:05;;;;;;;26.57;23.87;;;;;;;;;;6283007;22;20383;-93
2022/05/20 02:15:49;;;;;;;27.63;24.63;;;;;;;;;;6282450;22;20392;-94
2022/05/20 02:19:04;;;;;;;32.73;26.70;;;;;;;;;;6280710;22;20395;-93
2022/05/20 02:22:10;;;;;;;27.83;24.53;;;;;;;;;;6279386;22;20377;-93
2022/05/20 02:25:16;;;;;;;28.23;25.27;;;;;;;;;;6273573;22;20376;-92
2022/05/20 02:28:22;;;;;;;35.70;27.43;;;;;;;;;;6279354;22;20449;-92
2022/05/20 02:31:31;;;;;;;32.00;27.13;;;;;;;;;;6278998;22;20380;-93
2022/05/20 02:34:37;;;;;;;37.30;26.63;;;;;;;;;;6279458;22;20393;-92
2022/05/20 02:37:26;;;;;;;37.57;28.00;;;;;;;;;;6277003;22;20384;-93
2022/05/20 02:40:31;;;;;;;38.70;28.70;;;;;;;;;;6279439;22;20384;-92
2022/05/20 02:43:37;;;;;;;35.60;30.50;;;;;;;;;;6276974;22;20385;-92
2022/05/20 02:46:43;;;;;;;38.57;29.80;;;;;;;;;;6277571;22;20958;-93
2022/05/20 02:49:49;;;;;;;40.57;30.00;;;;;;;;;;6280173;22;20380;-92
2022/05/20 02:52:55;;;;;;;43.70;31.93;;;;;;;;;;6278180;22;20384;-93
2022/05/20 02:56:03;;;;;;;40.13;31.03;;;;;;;;;;6278923;22;20399;-93
2022/05/20 03:05:16;;;;;;;34.20;28.07;;;;;;;;;;6292858;22;20380;-93
2022/05/20 03:08:22;;;;;;;32.77;28.73;;;;;;;;;;6291632;22;20424;-92
2022/05/20 03:11:31;;;;;;;34.40;28.23;;;;;;;;;;6297438;22;20399;-93
2022/05/20 03:14:38;;;;;;;41.33;30.23;;;;;;;;;;6278432;22;20472;-93
2022/05/20 03:17:43;;;;;;;38.40;27.50;;;;;;;;;;6275965;22;20384;-94
2022/05/20 03:20:49;;;;;;;34.90;28.50;;;;;;;;;;6275786;22;20449;-93
2022/05/20 03:23:54;;;;;;;34.33;26.87;;;;;;;;;;6269331;22;20381;-92
2022/05/20 03:27:03;;;;;;;36.50;28.27;;;;;;;;;;6275402;22;20443;-92
2022/05/20 03:30:07;;;;;;;33.60;27.07;;;;;;;;;;6274978;22;20384;-93
2022/05/20 03:33:15;;;;;;;36.70;27.80;;;;;;;;;;6278984;22;20380;-91
2022/05/20 03:36:21;;;;;;;41.23;28.80;;;;;;;;;;6289660;22;20391;-91
2022/05/20 03:39:27;;;;;;;35.43;27.87;;;;;;;;;;6290287;22;20377;-92
2022/05/20 03:42:33;;;;;;;36.20;29.70;;;;;;;;;;6295124;22;20393;-91
2022/05/20 03:45:39;;;;;;;34.70;28.17;;;;;;;;;;6295622;22;20387;-91
2022/05/20 03:48:44;;;;;;;34.63;29.03;;;;;;;;;;6295317;22;20408;-91
2022/05/20 03:51:51;;;;;;;39.20;27.43;;;;;;;;;;6293920;22;20504;-91
2022/05/20 03:54:56;;;;;;;33.60;27.70;;;;;;;;;;6294995;22;20475;-91
2022/05/20 03:58:07;;;;;;;35.00;28.57;;;;;;;;;;6292741;22;20394;-91
2022/05/20 04:04:19;;;;;;;31.70;25.90;;;;;;;;;;6298901;22;20403;-91
2022/05/20 04:07:16;;;;;;;29.90;25.00;;;;;;;;;;6295368;22;20431;-92
2022/05/20 04:10:24;;;;;;;29.07;25.97;;;;;;;;;;6293985;22;20427;-91
2022/05/20 04:13:26;;;;;;;32.23;24.57;;;;;;;;;;6292396;22;20391;-92
2022/05/20 04:16:32;;;;;;;30.13;24.30;;;;;;;;;;6292952;22;20384;-91
2022/05/20 04:19:38;;;;;;;29.43;26.30;;;;;;;;;;6290859;22;20380;-92
2022/05/20 04:22:45;;;;;;;35.47;27.50;;;;;;;;;;6289022;22;20384;-91
2022/05/20 04:25:51;;;;;;;36.70;27.97;;;;;;;;;;6288969;22;20427;-91
2022/05/20 04:28:57;;;;;;;36.30;27.80;;;;;;;;;;6295137;22;20399;-92
2022/05/20 04:32:03;;;;;;;33.00;25.97;;;;;;;;;;6292059;22;20381;-92
2022/05/20 04:35:17;;;;;;;35.23;25.87;;;;;;;;;;6295682;22;20388;-91
2022/05/20 04:38:27;;;;;;;34.00;27.57;;;;;;;;;;6295439;22;20411;-91
2022/05/20 04:47:40;;;;;;;27.57;24.57;;;;;;;;;;6297383;22;20466;-91
2022/05/20 04:50:44;;;;;;;28.47;25.47;;;;;;;;;;6293485;22;20464;-91
2022/05/20 04:57:03;;;;;;;31.87;26.40;;;;;;;;;;6287371;22;20395;-90
2022/05/20 05:00:04;;;;;;;32.60;27.83;;;;;;;;;;6285922;22;20446;-91
2022/05/20 05:03:08;;;;;;;40.27;31.57;;;;;;;;;;6289678;22;20926;-93
2022/05/20 05:06:13;;;;;;;40.30;33.90;;;;;;;;;;6288898;22;20466;-92
2022/05/20 05:09:19;;;;;;;38.80;32.03;;;;;;;;;;6293056;22;20395;-90
2022/05/20 05:12:35;;;;;;;38.27;34.17;;;;;;;;;;6294529;22;20380;-93
2022/05/20 05:15:36;;;;;;;38.20;33.47;;;;;;;;;;6284088;22;20385;-92
2022/05/20 05:18:48;;;;;;;36.90;32.97;;;;;;;;;;6292459;22;20399;-92
2022/05/20 05:21:55;;;;;;;40.23;32.70;;;;;;;;;;6292158;22;20428;-90
2022/05/20 05:25:03;;;;;;;39.13;34.47;;;;;;;;;;6278792;22;20388;-91
2022/05/20 05:28:09;;;;;;;41.27;32.30;;;;;;;;;;6293145;22;20467;-89
2022/05/20 05:31:16;;;;;;;36.27;29.37;;;;;;;;;;6297643;22;20379;-88
2022/05/20 05:34:34;;;;;;;;;;;;;;;;;;;;;
2022/05/20 05:37:30;;;;;;;34.60;29.47;;;;;;;;;;6294602;22;20387;-91
2022/05/20 05:40:46;;;;;;;34.67;29.30;;;;;;;;;;6293821;22;20403;-92
2022/05/20 05:43:55;;;;;;;32.53;28.57;;;;;;;;;;6288860;22;20417;-92
2022/05/20 05:47:04;;;;;;;32.13;28.73;;;;;;;;;;6288470;22;20557;-92
2022/05/20 05:50:10;;;;;;;31.20;27.17;;;;;;;;;;6283287;22;20479;-92
2022/05/20 05:53:20;;;;;;;33.63;29.43;;;;;;;;;;6291797;22;20361;-92
2022/05/20 05:56:26;;;;;;;33.23;29.93;;;;;;;;;;6294600;22;20392;-91
2022/05/20 05:59:32;;;;;;;35.43;31.53;;;;;;;;;;6290212;22;20451;-91
2022/05/20 06:02:42;;;;;;;33.80;30.27;;;;;;;;;;6294187;22;20383;-89
2022/05/20 06:11:38;;;;;;;33.77;28.70;;;;;;;;;;6293886;22;20526;-93
2022/05/20 06:14:51;;;;;;;29.67;26.80;;;;;;;;;;6260585;23;20780;-89
2022/05/20 06:21:31;;;;;;;25.17;22.70;;;;;;;;;;6260709;23;20396;-96
2022/05/20 06:24:37;;;;;;;22.17;19.77;;;;;;;;;;6251232;23;20389;-94
2022/05/20 06:30:28;;;;;;;19.47;17.60;;;;;;;;;;6321753;22;20529;-93
2022/05/20 06:42:42;;;;;;;13.50;12.03;;;;;;;;;;6321465;22;20390;-95
2022/05/20 06:45:41;;;;;;;14.53;13.10;;;;;;;;;;6319827;22;20376;-96
2022/05/20 06:48:47;;;;;;;12.53;11.30;;;;;;;;;;6324160;22;20391;-95
2022/05/20 06:51:56;;;;;;;13.83;12.63;;;;;;;;;;6311460;22;20422;-95
2022/05/20 06:55:03;;;;;;;14.10;12.90;;;;;;;;;;6312383;22;20384;-92
2022/05/20 06:58:20;;;;;;;13.17;12.00;;;;;;;;;;6314672;22;20395;-92
2022/05/20 07:01:26;;;;;;;13.47;12.17;;;;;;;;;;6310844;22;20418;-94
2022/05/20 07:04:31;;;;;;;12.43;11.53;;;;;;;;;;6307239;22;20721;-95
2022/05/20 07:07:40;;;;;;;12.87;11.80;;;;;;;;;;6311122;22;20489;-96
2022/05/20 07:10:49;;;;;;;14.77;12.87;;;;;;;;;;6310935;22;20737;-96
2022/05/20 07:13:54;;;;;;;14.27;13.27;;;;;;;;;;6307370;22;20405;-94
2022/05/20 07:17:00;;;;;;;14.03;12.83;;;;;;;;;;6311103;22;20470;-94
2022/05/20 07:20:06;;;;;;;17.13;13.30;;;;;;;;;;6308916;22;20383;-95
2022/05/20 07:22:55;;;;;;;12.07;10.90;;;;;;;;;;6308981;22;20382;-92
2022/05/20 07:25:21;;;;;;;13.27;12.27;;;;;;;;;;6311242;22;20372;-92
2022/05/20 07:27:50;;;;;;;14.10;12.83;;;;;;;;;;6282863;22;20572;-91
2022/05/20 07:30:17;;;;;;;17.63;13.50;;;;;;;;;;6310698;22;20379;-94
2022/05/20 07:32:55;;;;;;;13.53;12.43;;;;;;;;;;6261139;22;20388;-95
2022/05/20 07:35:27;;;;;;;12.57;11.30;;;;;;;;;;6284099;22;20399;-95
2022/05/20 07:38:13;;;;;;;14.07;12.97;;;;;;;;;;6284259;22;20395;-95
2022/05/20 07:41:26;;;;;;;12.63;11.40;;;;;;;;;;6314120;22;20423;-96
2022/05/20 07:47:33;;;;;;;12.10;11.10;;;;;;;;;;6281795;22;21063;-92
2022/05/20 07:50:39;;;;;;;11.97;10.67;;;;;;;;;;6303608;22;20402;-90
2022/05/20 07:53:44;;;;;;;10.13;9.43;;;;;;;;;;6311534;22;20501;-91
2022/05/20 07:56:55;;;;;;;11.20;10.30;;;;;;;;;;6313079;22;20442;-89
2022/05/20 08:00:13;;;;;;;11.63;10.53;;;;;;;;;;6322358;22;20387;-89
2022/05/20 08:04:52;;;;;;;11.50;10.53;;;;;;;;;;6322120;22;20420;-90
2022/05/20 08:06:28;;;;;;;11.00;10.20;;;;;;;;;;6324541;22;20453;-90
2022/05/20 08:09:52;;;;;;;13.67;12.67;;;;;;;;;;6329961;22;20403;-92
2022/05/20 08:12:44;;;;;;;12.10;10.97;;;;;;;;;;6331996;22;20375;-93
2022/05/20 08:15:49;;;;;;;14.40;12.90;;;;;;;;;;6325676;22;20375;-92
2022/05/20 08:18:54;;;;;;;15.47;13.40;;;;;;;;;;6322418;22;20637;-91
2022/05/20 08:22:00;;;;;;;14.90;13.60;;;;;;;;;;6318238;22;20391;-90
2022/05/20 08:24:45;;;;;;;16.23;14.87;;;;;;;;;;6317463;22;20383;-91
2022/05/20 08:27:14;;;;;;;15.73;14.43;;;;;;;;;;6316400;22;20453;-86
2022/05/20 08:32:18;;;;;;;16.73;14.93;;;;;;;;;;6329269;22;20442;-94
2022/05/20 08:34:50;;;;;;;16.10;14.80;;;;;;;;;;6304390;22;20425;-92
2022/05/20 08:40:24;;;;;;;19.77;18.07;;;;;;;;;;6307085;22;21444;-93
2022/05/20 08:42:52;;;;;;;19.53;17.40;;;;;;;;;;6326957;22;20371;-90
2022/05/20 08:45:29;;;;;;;20.40;18.80;;;;;;;;;;6317653;22;20367;-93
2022/05/20 08:47:55;;;;;;;18.83;17.20;;;;;;;;;;6286408;22;20461;-94
2022/05/20 08:50:53;;;;;;;19.77;17.83;;;;;;;;;;6292267;22;20411;-96
2022/05/20 09:01:42;;;;;;;24.33;21.83;;;;;;;;;;6291689;22;20458;-90
2022/05/20 09:04:24;;;;;;;;;;;;;;;;;;;;;
2022/05/20 09:15:43;;;;;;;27.10;24.30;;;;;;;;;;6282027;22;20444;-91
2022/05/20 09:21:25;;;;;;;25.40;22.90;;;;;;;;;;6328884;22;20439;-88
2022/05/20 09:24:28;;;;;;;25.37;22.70;;;;;;;;;;6328595;22;20471;-94
2022/05/20 09:27:43;;;;;;;23.17;20.93;;;;;;;;;;6326308;22;20484;-89
2022/05/20 09:30:40;;;;;;;20.67;18.67;;;;;;;;;;6322931;22;20363;-94
2022/05/20 09:33:46;;;;;;;26.37;23.90;;;;;;;;;;6328403;22;20381;-93
2022/05/20 09:37:06;;;;;;;22.17;20.27;;;;;;;;;;6320054;22;20378;-93
2022/05/20 09:40:10;;;;;;;21.10;18.97;;;;;;;;;;6320851;22;20383;-92
2022/05/20 09:43:17;;;;;;;21.30;18.77;;;;;;;;;;6324048;22;20432;-92
2022/05/20 09:46:23;;;;;;;20.33;18.50;;;;;;;;;;6324259;22;20424;-94
2022/05/20 09:49:32;;;;;;;20.57;18.53;;;;;;;;;;6330613;22;20384;-93
2022/05/20 09:52:39;;;;;;;19.00;17.10;;;;;;;;;;6300205;22;20372;-93
2022/05/20 09:55:51;;;;;;;18.87;16.97;;;;;;;;;;6305003;22;20453;-93
2022/05/20 09:58:57;;;;;;;20.30;18.30;;;;;;;;;;6327273;22;20382;-92
2022/05/20 10:02:02;;;;;;;19.97;18.27;;;;;;;;;;6324915;22;20478;-93
2022/05/20 10:04:52;;;;;;;21.77;19.47;;;;;;;;;;6326784;22;20414;-93
2022/05/20 10:07:48;;;;;;;21.90;19.87;;;;;;;;;;6309898;22;20489;-91
2022/05/20 10:10:42;;;;;;;21.50;19.60;;;;;;;;;;6318777;22;20380;-91
2022/05/20 10:13:47;;;;;;;20.10;18.00;;;;;;;;;;6317649;22;20730;-91
2022/05/20 10:16:52;;;;;;;19.50;17.80;;;;;;;;;;6317525;22;20387;-94
2022/05/20 10:19:41;;;;;;;23.20;21.00;;;;;;;;;;6320945;22;20384;-93
2022/05/20 10:22:53;;;;;;;21.67;19.60;;;;;;;;;;6319968;22;20391;-93
2022/05/20 10:25:47;;;;;;;20.43;18.67;;;;;;;;;;6292437;22;20470;-89
2022/05/20 10:35:08;;;;;;;21.73;19.73;;;;;;;;;;6317748;22;20366;-90
2022/05/20 10:38:11;;;;;;;22.03;19.90;;;;;;;;;;6316061;22;20387;-91
2022/05/20 10:41:04;;;;;;;19.77;17.97;;;;;;;;;;6312991;22;20383;-91
2022/05/20 10:50:44;;;;;;;21.60;19.57;;;;;;;;;;6323075;22;20473;-92
2022/05/20 10:53:45;;;;;;;20.90;19.00;;;;;;;;;;6320111;22;20399;-90
2022/05/20 10:56:46;;;;;;;19.80;18.13;;;;;;;;;;6317931;22;20399;-93
2022/05/20 10:59:59;;;;;;;21.60;19.50;;;;;;;;;;6319074;22;20405;-86
2022/05/20 11:03:02;;;;;;;20.20;18.40;;;;;;;;;;6317543;22;20463;-91
2022/05/20 11:06:06;;;;;;;20.17;18.40;;;;;;;;;;6321205;22;20395;-90
2022/05/20 11:09:15;;;;;;;21.00;19.23;;;;;;;;;;6319829;22;20406;-92
2022/05/20 11:12:22;;;;;;;23.83;21.37;;;;;;;;;;6312922;22;20630;-92
2022/05/20 11:15:26;;;;;;;22.40;20.40;;;;;;;;;;6313078;22;20388;-94
2022/05/20 11:18:50;;;;;;;22.57;20.60;;;;;;;;;;6316545;22;20375;-94
2022/05/20 11:22:04;;;;;;;24.20;22.00;;;;;;;;;;6303022;22;20470;-89
2022/05/20 11:25:08;;;;;;;21.47;19.67;;;;;;;;;;6272309;22;20874;-85
2022/05/20 11:28:14;;;;;;;19.70;18.20;;;;;;;;;;6309287;22;20446;-88
2022/05/20 11:31:18;;;;;;;22.53;20.70;;;;;;;;;;6307305;22;20383;-90
2022/05/20 11:34:24;;;;;;;18.90;17.57;;;;;;;;;;6312030;22;20835;-92
2022/05/20 11:37:19;;;;;;;19.47;17.67;;;;;;;;;;6315807;22;20379;-91
2022/05/20 11:40:12;;;;;;;20.77;19.07;;;;;;;;;;6316906;22;20387;-90
2022/05/20 11:43:16;;;;;;;21.10;19.20;;;;;;;;;;6306123;22;20384;-90
2022/05/20 11:46:22;;;;;;;22.03;20.00;;;;;;;;;;6307489;22;20972;-90
2022/05/20 11:49:26;;;;;;;19.00;17.60;;;;;;;;;;6311083;22;20890;-92
2022/05/20 11:52:15;;;;;;;20.93;19.00;;;;;;;;;;6311661;22;20537;-91
2022/05/20 11:55:21;;;;;;;20.93;19.10;;;;;;;;;;6309587;22;20458;-91
2022/05/20 11:58:28;;;;;;;21.40;19.63;;;;;;;;;;6320610;22;20383;-91
2022/05/20 12:01:42;;;;;;;18.97;17.47;;;;;;;;;;6324937;22;20364;-91
2022/05/20 12:04:40;;;;;;;18.03;16.40;;;;;;;;;;6326974;22;20406;-91
2022/05/20 12:07:49;;;;;;;16.97;15.60;;;;;;;;;;6321269;22;20449;-95
2022/05/20 12:10:32;;;;;;;18.00;16.40;;;;;;;;;;6323575;22;20375;-92
2022/05/20 12:13:45;;;;;;;16.77;15.47;;;;;;;;;;6322253;22;20467;-91
2022/05/20 12:16:51;;;;;;;17.50;15.90;;;;;;;;;;6299013;22;20392;-91
2022/05/20 12:25:59;;;;;;;18.87;17.37;;;;;;;;;;6316930;22;20418;-91
2022/05/20 12:29:04;;;;;;;17.67;16.20;;;;;;;;;;6320646;22;20777;-90
2022/05/20 12:32:10;;;;;;;16.47;15.17;;;;;;;;;;6317499;22;20387;-90
2022/05/20 12:35:35;;;;;;;12.87;11.40;;;;;;;;;;6306570;22;20445;-88
2022/05/20 12:38:41;;;;;;;19.90;18.10;;;;;;;;;;6154151;23;20552;-90
2022/05/20 12:41:45;;;;;;;18.37;16.97;;;;;;;;;;6153190;23;20725;-90
2022/05/20 12:44:52;;;;;;;19.13;17.57;;;;;;;;;;6308877;22;20695;-90
2022/05/20 12:47:57;;;;;;;16.60;15.30;;;;;;;;;;6311336;22;20529;-91
2022/05/20 12:51:03;;;;;;;13.13;12.17;;;;;;;;;;6316263;22;20392;-91
2022/05/20 12:54:09;;;;;;;9.70;9.20;;;;;;;;;;6315247;22;20388;-89
2022/05/20 12:57:15;;;;;;;8.27;7.87;;;;;;;;;;6324916;22;20414;-89
2022/05/20 13:00:21;;;;;;;7.40;7.00;;;;;;;;;;6316424;22;20417;-90
2022/05/20 13:03:27;;;;;;;11.00;8.70;;;;;;;;;;6318872;22;20383;-90
2022/05/20 13:06:33;;;;;;;9.60;9.10;;;;;;;;;;6315634;22;20492;-90
2022/05/20 13:09:45;;;;;;;11.23;10.43;;;;;;;;;;6318716;22;20411;-90
2022/05/20 13:12:51;;;;;;;9.87;9.17;;;;;;;;;;6314474;22;20689;-89
2022/05/20 13:16:09;;;;;;;11.27;10.40;;;;;;;;;;6308695;22;20433;-90
2022/05/20 13:19:18;;;;;;;10.23;9.43;;;;;;;;;;6306568;22;20412;-91
2022/05/20 13:22:23;;;;;;;9.80;9.10;;;;;;;;;;6298849;22;20418;-88
2022/05/20 16:36:34;;;;;;;2.10;2.10;;;19.10;99.90;;;;;;5491875;23;15076805;-92
2022/05/20 16:39:59;;;;;;;2.53;2.33;;;19.00;99.90;;;;;;6127773;23;20205;-91
2022/05/20 16:43:24;;;;;;;3.00;3.00;;;19.00;99.90;;;;;;6126268;23;20443;-89
2022/05/20 16:46:53;;;;;;;2.93;2.83;;;18.90;99.90;;;;;;6126151;23;20389;-92
2022/05/20 16:50:19;;;;;;;2.50;2.40;;;19.50;99.90;;;;;;6128113;23;20408;-94
2022/05/20 16:53:43;;;;;;;2.70;2.60;;;19.10;99.90;;;;;;6127559;23;20381;-89
2022/05/20 17:03:57;;;;;;;5.30;4.93;;;19.40;99.90;;;;;;6129780;23;20767;-92
2022/05/20 17:07:23;;;;;;;4.50;4.30;;;19.50;99.90;;;;;;6120186;23;20440;-90
2022/05/20 17:10:48;;;;;;;4.07;3.70;;;19.60;99.90;;;;;;6122284;23;20881;-90
2022/05/20 17:14:13;;;;;;;5.93;5.60;;;20.00;99.90;;;;;;6126713;23;20392;-91
2022/05/20 17:17:39;;;;;;;6.70;6.33;;;19.50;99.90;;;;;;6133052;23;20374;-88
2022/05/20 17:24:21;;;;;;;8.43;8.03;;;19.50;99.90;;;;;;6127923;23;20412;-92
2022/05/20 17:24:32;;;;;;;9.40;8.93;;;19.50;99.90;;;;;;6130560;23;20460;-89
2022/05/20 17:27:55;;;;;;;10.20;9.70;;;19.20;99.90;;;;;;6126515;23;20590;-91
2022/05/20 17:31:20;;;;;;;11.37;10.67;;;19.40;99.90;;;;;;6128041;23;20413;-89
2022/05/20 17:34:46;;;;;;;12.53;11.80;;;19.40;99.90;;;;;;6120735;23;20409;-89
2022/05/20 17:38:11;;;;;;;14.20;13.17;;;19.30;99.90;;;;;;6151800;23;20400;-90
2022/05/20 17:41:37;;;;;;;14.70;13.60;;;19.10;99.90;;;;;;6146124;23;20388;-88
2022/05/20 17:45:02;;;;;;;14.87;13.97;;;19.00;99.90;;;;;;6149569;23;20388;-90
2022/05/20 17:48:27;;;;;;;16.67;15.37;;;18.80;99.90;;;;;;6154555;23;20384;-90
2022/05/20 17:51:54;;;;;;;16.90;15.53;;;18.90;99.90;;;;;;6150680;23;20396;-90
2022/05/20 17:55:18;;;;;;;19.33;17.60;;;19.00;99.90;;;;;;6153461;23;20392;-89
2022/05/20 17:58:44;;;;;;;19.87;18.37;;;18.90;99.90;;;;;;6166056;23;20507;-90
2022/05/20 18:02:09;;;;;;;20.17;18.60;;;18.80;99.90;;;;;;6170368;23;20608;-89
2022/05/20 18:05:35;;;;;;;14.57;13.40;;;19.50;99.90;;;;;;6154168;23;20418;-89
2022/05/20 18:09:02;;;;;;;16.23;14.83;;;18.50;99.90;;;;;;6157481;23;20399;-88
2022/05/20 18:12:14;;;;;;;14.10;13.10;;;;;;;;;;6161154;23;20399;-92
2022/05/20 18:15:20;;;;;;;13.40;12.40;;;;;;;;;;6166917;23;20388;-91
2022/05/20 18:18:26;;;;;;;10.33;9.53;;;;;;;;;;6168623;23;20420;-93
2022/05/20 18:21:32;;;;;;;10.20;9.57;;;;;;;;;;6171869;23;20471;-91
2022/05/20 18:27:14;;;;;;;8.57;7.83;;;;;;;;;;6197650;23;20523;-91
2022/05/20 18:30:21;;;;;;;8.57;8.17;;;;;;;;;;6236704;22;20443;-90
2022/05/20 18:33:28;;;;;;;9.33;7.37;;;;;;;;;;6170847;23;20630;-93
2022/05/20 18:40:02;;;;;;;7.73;7.17;;;;;;;;;;6160917;23;20431;-90
2022/05/20 18:43:08;;;;;;;8.23;7.67;;;;;;;;;;6167016;23;20447;-91
2022/05/20 18:46:17;;;;;;;9.50;8.87;;;;;;;;;;6167413;22;20413;-90
2022/05/20 18:49:23;;;;;;;6.80;6.50;;;;;;;;;;6165879;23;20391;-89
2022/05/20 18:52:35;;;;;;;6.83;6.23;;;;;;;;;;6158811;23;20875;-88
2022/05/20 18:55:41;;;;;;;6.90;6.50;;;;;;;;;;6156518;23;21003;-89
2022/05/20 18:58:49;;;;;;;8.83;8.13;;;;;;;;;;6159390;23;20420;-90
2022/05/20 19:01:52;;;;;;;5.77;5.57;;;;;;;;;;6171474;23;20404;-92
2022/05/20 19:05:06;;;;;;;7.57;6.97;;;;;;;;;;6168225;23;20431;-90
2022/05/20 19:08:12;;;;;;;8.37;7.77;;;;;;;;;;6162050;22;20396;-84
2022/05/20 19:11:20;;;;;;;9.10;8.60;;;;;;;;;;6169921;23;21102;-88
2022/05/20 19:14:24;;;;;;;10.07;9.47;;;;;;;;;;6173296;23;20390;-91
2022/05/20 19:17:32;;;;;;;10.57;9.87;;;;;;;;;;6168291;23;20388;-91
2022/05/20 19:20:38;;;;;;;9.23;8.73;;;;;;;;;;6172691;23;20410;-88
2022/05/20 19:23:48;;;;;;;9.23;8.60;;;;;;;;;;6142417;22;20464;-92
2022/05/20 19:26:56;;;;;;;9.23;8.70;;;;;;;;;;6145911;23;20401;-90
2022/05/20 19:30:21;;;;;;;9.30;8.80;;;;;;;;;;6114610;23;20434;-91
2022/05/20 19:35:58;;;;;;;;;;;;;;;;;;;;;
2022/05/20 19:41:45;;;;;;;8.90;8.23;;;;;;;;;;6171439;23;20487;-90
2022/05/20 19:44:54;;;;;;;11.17;10.27;;;;;;;;;;6174938;23;20391;-93
2022/05/20 19:48:00;;;;;;;10.77;10.03;;;;;;;;;;6174427;23;20397;-93
2022/05/20 19:51:05;;;;;;;9.53;9.03;;;;;;;;;;6301031;22;20412;-90
2022/05/20 19:54:16;;;;;;;11.30;10.37;;;;;;;;;;6295664;22;20395;-90
2022/05/20 20:00:41;;;;;;;11.43;10.33;;;;;;;;;;6300502;22;20474;-91
2022/05/20 20:03:52;;;;;;;11.40;10.43;;;;;;;;;;6297516;22;20430;-93
2022/05/20 20:06:54;;;;;;;10.87;10.17;;;;;;;;;;6263650;22;20438;-92
2022/05/20 20:10:04;;;;;;;9.63;9.03;;;;;;;;;;6166148;23;20422;-92
2022/05/20 20:29:16;;;;;;;9.27;8.40;;;;;;;;;;6161196;23;20459;-91
2022/05/20 21:23:36;;;;;;;3.80;3.63;;;;;;;;;;6147465;22;20430;-93
2022/05/20 21:27:00;;;;;;;4.00;3.67;;;15.40;99.90;;;;;;6175391;22;20436;-93
2022/05/20 21:30:07;;;;;;;3.50;3.40;;;;;;;;;;6175238;23;20424;-93
2022/05/20 21:33:22;;;;;;;4.40;3.43;;;;;;;;;;6157238;23;20458;-93
2022/05/20 21:41:46;;;;;;;5.00;2.40;;;;;;;;;;6125790;22;20471;-91
2022/05/20 21:56:06;;;;;;;2.83;2.60;;;;;;;;;;6151298;22;20481;-93
2022/05/20 21:59:12;;;;;;;2.70;2.60;;;;;;;;;;6174857;23;20384;-92
2022/05/20 22:08:43;;;;;;;5.97;3.00;;;;;;;;;;6174370;23;20387;-93
2022/05/20 22:19:01;;;;;;;5.00;4.60;;;;;;;;;;6124223;23;20464;-94
2022/05/20 22:22:07;;;;;;;5.10;4.90;;;;;;;;;;6133931;23;20389;-93
2022/05/20 22:25:19;;;;;;;5.37;4.93;;;;;;;;;;6136017;23;20404;-93
2022/05/20 22:28:28;;;;;;;4.60;4.30;;;;;;;;;;6127722;23;20424;-92
2022/05/20 22:31:39;;;;;;;7.10;6.50;;;;;;;;;;6101856;23;20431;-92
2022/05/20 22:34:45;;;;;;;7.00;5.50;;;;;;;;;;6101429;23;20465;-93
2022/05/20 22:37:37;;;;;;;5.27;4.87;;;;;;;;;;6095562;23;20456;-92
2022/05/20 22:40:15;;;;;;;5.23;4.83;;;;;;;;;;6102045;23;20461;-91
2022/05/20 22:42:47;;;;;;;6.73;6.07;;;;;;;;;;6073427;23;20382;-92
2022/05/20 22:45:15;;;;;;;5.93;5.60;;;;;;;;;;6099442;23;20358;-90
2022/05/20 22:47:41;;;;;;;6.27;5.83;;;;;;;;;;6070093;23;20394;-92
2022/05/20 22:50:12;;;;;;;6.60;5.10;;;;;;;;;;6072648;23;20382;-91
2022/05/20 22:52:47;;;;;;;5.93;5.60;;;;;;;;;;6069508;23;20390;-92
2022/05/20 22:58:06;;;;;;;6.73;6.23;;;;;;;;;;6097270;23;20369;-91
2022/05/20 23:00:32;;;;;;;6.30;5.80;;;;;;;;;;6070197;23;20502;-90
2022/05/20 23:03:02;;;;;;;5.63;5.40;;;;;;;;;;6070232;23;20390;-90
2022/05/20 23:05:29;;;;;;;7.10;6.27;;;;;;;;;;6048038;23;20444;-91
2022/05/20 23:08:00;;;;;;;5.40;4.90;;;;;;;;;;6065965;23;20394;-91
2022/05/20 23:10:26;;;;;;;5.43;5.13;;;;;;;;;;6073468;23;20420;-92
2022/05/20 23:12:55;;;;;;;6.33;5.70;;;;;;;;;;6099901;23;20382;-91
2022/05/20 23:15:21;;;;;;;5.27;4.87;;;;;;;;;;6057293;23;20386;-93
2022/05/20 23:17:50;;;;;;;6.17;5.80;;;;;;;;;;6078557;23;20430;-92
2022/05/20 23:20:16;;;;;;;7.10;6.50;;;;;;;;;;6083558;23;20437;-91
2022/05/20 23:22:42;;;;;;;5.73;5.40;;;;;;;;;;6082894;23;20400;-91
2022/05/20 23:25:11;;;;;;;11.87;6.97;;;;;;;;;;6082899;23;20417;-91
2022/05/20 23:27:37;;;;;;;6.50;5.90;;;;;;;;;;6077671;23;20397;-91
2022/05/20 23:30:10;;;;;;;6.63;6.10;;;;;;;;;;6078101;23;20410;-90
2022/05/20 23:32:39;;;;;;;7.80;7.00;;;;;;;;;;6071102;23;20794;-89
2022/05/20 23:35:05;;;;;;;7.03;6.33;;;;;;;;;;6072451;23;20393;-91
2022/05/20 23:37:32;;;;;;;7.30;6.80;;;;;;;;;;6070298;23;20416;-91
2022/05/20 23:40:18;;;;;;;8.10;7.40;;;;;;;;;;6077303;23;20426;-90
2022/05/20 23:42:47;;;;;;;8.33;7.60;;;;;;;;;;6099417;23;20378;-92
2022/05/20 23:45:14;;;;;;;8.00;7.20;;;;;;;;;;6078535;23;20417;-91
2022/05/20 23:47:44;;;;;;;9.70;8.83;;;;;;;;;;6083558;23;20426;-92
2022/05/20 23:50:11;;;;;;;10.50;7.57;;;;;;;;;;6086875;23;20406;-92
2022/05/20 23:52:39;;;;;;;11.50;9.17;;;;;;;;;;6083708;23;20402;-90
2022/05/20 23:57:52;;;;;;;8.63;8.03;;;;;;;;;;6114489;23;20429;-91
